Time;durP1;ratioP1;P1;durP2;ratioP2;P2;SDS_P1;SDS_P2;PMS_P1;PMS_P2;Temp;Humidity;BMP_temperature;BMP_pressure;BME280_temperature;BME280_humidity;BME280_pressure;Samples;Min_cycle;Max_cycle;Signal;HPM_P1;HPM_P2
2021/12/10 00:00:50;;;;;;;46.33;24.08;;;;;;;;;;5035777;28;20261;-93
2021/12/10 00:03:21;;;;;;;39.83;22.40;;;;;;;;;;5013035;28;20365;-91
2021/12/10 00:06:00;;;;;;;49.67;26.90;;;;;;;;;;5037300;28;20126;-91
2021/12/10 00:08:28;;;;;;;42.78;22.45;;;;;;;;;;5020148;28;20121;-93
2021/12/10 00:10:55;;;;;;;39.28;22.83;;;;;;;;;;5019176;28;20033;-92
2021/12/10 00:13:27;;;;;;;33.60;19.48;;;;;;;;;;5028957;28;20030;-91
2021/12/10 00:15:56;;;;;;;40.72;24.52;;;;;;;;;;5018278;28;20069;-91
2021/12/10 00:18:26;;;;;;;45.67;23.65;;;;;;;;;;5018382;28;20263;-91
2021/12/10 00:20:58;;;;;;;37.20;21.58;;;;;;;;;;5013798;28;20029;-93
2021/12/10 00:23:26;;;;;;;42.72;24.58;;;;;;;;;;5016915;28;20052;-92
2021/12/10 00:25:53;;;;;;;39.92;18.85;;;;;;;;;;5018065;28;20029;-92
2021/12/10 00:28:31;;;;;;;40.65;20.00;;;;;;;;;;5021650;28;20148;-92
2021/12/10 00:31:06;;;;;;;32.45;18.98;;;;;;;;;;5031249;28;20312;-91
2021/12/10 00:33:39;;;;;;;34.97;18.10;;;;;;;;;;5020839;28;20037;-91
2021/12/10 00:36:06;;;;;;;38.78;20.05;;;;;;;;;;5033344;28;20219;-91
2021/12/10 00:38:33;;;;;;;33.08;19.00;;;;;;;;;;5037452;28;20076;-91
2021/12/10 00:40:59;;;;;;;33.80;20.10;;;;;;;;;;5018481;28;20044;-93
2021/12/10 00:43:28;;;;;;;39.25;23.15;;;;;;;;;;5016191;28;20030;-91
2021/12/10 00:45:54;;;;;;;42.03;21.17;;;;;;;;;;5034056;28;20323;-91
2021/12/10 00:48:21;;;;;;;34.03;18.45;;;;;;;;;;5012990;28;20041;-92
2021/12/10 00:50:49;;;;;;;34.75;18.48;;;;;;;;;;5015562;28;20088;-93
2021/12/10 00:53:16;;;;;;;37.33;19.48;;;;;;;;;;5021710;28;20042;-92
2021/12/10 00:55:45;;;;;;;31.30;19.00;;;;;;;;;;5016903;28;20061;-91
2021/12/10 00:58:12;;;;;;;37.10;18.48;;;;;;;;;;5032151;28;20084;-92
2021/12/10 01:00:53;;;;;;;39.13;19.98;;;;;;;;;;5020484;28;20029;-91
2021/12/10 01:03:22;;;;;;;36.53;16.88;;;;;;;;;;5031214;28;20037;-93
2021/12/10 01:05:50;;;;;;;41.25;19.42;;;;;;;;;;5014347;28;20347;-92
2021/12/10 01:08:16;;;;;;;37.53;19.77;;;;;;;;;;5016954;28;20034;-92
2021/12/10 01:10:50;;;;;;;29.30;16.30;;;;;;;;;;5014807;28;20353;-90
2021/12/10 01:13:19;;;;;;;39.33;19.15;;;;;;;;;;5016206;28;20033;-91
2021/12/10 01:23:55;;;;;;;33.13;17.40;;;;;;;;;;5032727;28;20026;-91
2021/12/10 01:26:37;;;;;;;38.95;17.35;;;;;;;;;;5031639;28;20037;-92
2021/12/10 01:29:04;;;;;;;31.08;15.25;;;;;;;;;;5013567;28;20346;-92
2021/12/10 01:31:30;;;;;;;29.40;16.35;;;;;;;;;;5017020;28;20030;-91
2021/12/10 01:33:56;;;;;;;25.63;15.90;;;;;;;;;;5019983;28;20033;-93
2021/12/10 01:36:24;;;;;;;33.22;16.42;;;;;;;;;;5018263;28;20052;-91
2021/12/10 01:38:52;;;;;;;32.47;17.23;;;;;;;;;;5017320;28;20034;-92
2021/12/10 01:41:23;;;;;;;31.00;17.02;;;;;;;;;;5008928;28;20586;-92
2021/12/10 01:43:52;;;;;;;29.48;14.65;;;;;;;;;;5035438;28;20029;-92
2021/12/10 01:46:25;;;;;;;30.45;16.77;;;;;;;;;;5018550;28;20068;-92
2021/12/10 01:48:53;;;;;;;27.73;15.98;;;;;;;;;;5015779;28;20032;-92
2021/12/10 01:51:26;;;;;;;36.00;16.00;;;;;;;;;;5018927;28;20361;-92
2021/12/10 01:53:55;;;;;;;30.85;15.70;;;;;;;;;;5015456;28;20079;-92
2021/12/10 01:56:24;;;;;;;33.50;15.57;;;;;;;;;;5017906;28;20029;-91
2021/12/10 01:58:50;;;;;;;25.77;14.77;;;;;;;;;;5014001;28;20075;-93
2021/12/10 02:01:18;;;;;;;30.15;15.63;;;;;;;;;;5033989;28;20342;-93
2021/12/10 02:03:49;;;;;;;30.70;16.35;;;;;;;;;;5034384;28;20373;-91
2021/12/10 02:06:16;;;;;;;30.13;14.23;;;;;;;;;;5015447;28;20037;-93
2021/12/10 02:08:42;;;;;;;30.88;17.60;;;;;;;;;;5020455;28;20049;-92
2021/12/10 02:11:11;;;;;;;35.40;16.98;;;;;;;;;;5040912;28;20259;-92
2021/12/10 02:13:38;;;;;;;31.17;15.95;;;;;;;;;;5024466;28;20254;-92
2021/12/10 02:16:08;;;;;;;30.25;14.93;;;;;;;;;;5032928;28;20041;-92
2021/12/10 02:18:37;;;;;;;44.30;17.30;;;;;;;;;;5016625;28;20095;-92
2021/12/10 02:21:03;;;;;;;28.50;15.60;;;;;;;;;;5024246;28;20243;-92
2021/12/10 02:23:42;;;;;;;28.27;13.32;;;;;;;;;;5042199;28;20037;-92
2021/12/10 02:26:11;;;;;;;35.17;14.00;;;;;;;;;;5030957;28;20361;-93
2021/12/10 02:28:37;;;;;;;23.40;14.52;;;;;;;;;;5015245;28;20025;-94
2021/12/10 02:31:08;;;;;;;25.90;13.13;;;;;;;;;;5033810;28;20052;-90
2021/12/10 02:33:34;;;;;;;29.05;13.20;;;;;;;;;;5009871;28;20373;-93
2021/12/10 02:36:03;;;;;;;23.42;12.00;;;;;;;;;;5016256;28;20369;-91
2021/12/10 02:38:29;;;;;;;21.13;11.77;;;;;;;;;;5015550;28;20033;-91
2021/12/10 02:40:56;;;;;;;25.08;13.07;;;;;;;;;;5028850;28;20043;-92
2021/12/10 02:43:23;;;;;;;26.25;11.00;;;;;;;;;;5017231;28;20036;-92
2021/12/10 02:45:59;;;;;;;26.38;12.00;;;;;;;;;;5015546;28;20167;-93
2021/12/10 02:48:27;;;;;;;31.60;12.60;;;;;;;;;;4996651;28;20523;-91
2021/12/10 02:50:56;;;;;;;26.60;12.38;;;;;;;;;;5017940;28;20053;-92
2021/12/10 02:53:27;;;;;;;21.13;11.45;;;;;;;;;;5031964;28;20069;-94
2021/12/10 02:55:54;;;;;;;23.10;11.18;;;;;;;;;;5011246;28;20053;-92
2021/12/10 02:58:20;;;;;;;19.35;8.65;;;;;;;;;;5010992;28;20095;-91
2021/12/10 03:00:52;;;;;;;21.35;10.95;;;;;;;;;;5014257;28;20033;-92
2021/12/10 03:03:19;;;;;;;21.77;11.80;;;;;;;;;;5012094;28;20347;-91
2021/12/10 03:05:45;;;;;;;24.58;11.23;;;;;;;;;;5016044;28;20131;-93
2021/12/10 03:08:11;;;;;;;24.42;11.85;;;;;;;;;;5017462;28;20054;-92
2021/12/10 03:10:37;;;;;;;23.60;10.38;;;;;;;;;;5015109;28;20149;-92
2021/12/10 03:13:04;;;;;;;17.73;9.80;;;;;;;;;;5034023;28;20116;-92
2021/12/10 03:15:32;;;;;;;22.15;11.32;;;;;;;;;;5017177;28;20245;-91
2021/12/10 03:18:00;;;;;;;16.73;9.88;;;;;;;;;;5017628;28;20073;-91
2021/12/10 03:20:30;;;;;;;22.20;13.25;;;;;;;;;;5019970;28;20029;-91
2021/12/10 03:22:57;;;;;;;23.00;12.25;;;;;;;;;;5021200;28;20041;-91
2021/12/10 03:25:25;;;;;;;18.80;9.20;;;;;;;;;;5016816;28;20068;-93
2021/12/10 03:27:52;;;;;;;17.10;10.55;;;;;;;;;;5037022;28;20040;-91
2021/12/10 03:30:24;;;;;;;18.38;10.75;;;;;;;;;;5016930;28;20131;-94
2021/12/10 03:32:50;;;;;;;21.25;11.48;;;;;;;;;;5024340;28;20380;-92
2021/12/10 03:35:20;;;;;;;25.33;13.57;;;;;;;;;;5020158;28;20203;-93
2021/12/10 03:37:46;;;;;;;26.17;11.32;;;;;;;;;;5017628;28;20025;-92
2021/12/10 03:40:14;;;;;;;20.65;10.55;;;;;;;;;;5022180;28;20125;-91
2021/12/10 03:42:41;;;;;;;19.08;8.57;;;;;;;;;;5021045;28;20045;-92
2021/12/10 03:45:08;;;;;;;24.27;10.00;;;;;;;;;;5034997;28;20235;-92
2021/12/10 03:47:37;;;;;;;17.35;10.07;;;;;;;;;;5018396;28;20025;-92
2021/12/10 03:50:06;;;;;;;22.52;8.32;;;;;;;;;;5019174;28;20057;-93
2021/12/10 03:52:32;;;;;;;18.60;7.97;;;;;;;;;;5018082;28;20038;-93
2021/12/10 03:54:59;;;;;;;11.00;6.90;;;;;;;;;;5013711;28;20052;-91
2021/12/10 03:57:26;;;;;;;19.40;8.60;;;;;;;;;;5020929;28;20053;-92
2021/12/10 03:59:52;;;;;;;24.58;12.05;;;;;;;;;;5019967;28;20262;-92
2021/12/10 04:02:19;;;;;;;28.15;9.82;;;;;;;;;;5033933;28;20048;-91
2021/12/10 04:04:46;;;;;;;18.50;9.75;;;;;;;;;;5036053;28;20045;-94
2021/12/10 04:07:17;;;;;;;17.13;9.90;;;;;;;;;;5019590;28;20033;-93
2021/12/10 04:09:47;;;;;;;20.08;11.63;;;;;;;;;;5043202;28;20048;-93
2021/12/10 04:12:14;;;;;;;21.65;11.63;;;;;;;;;;5026780;28;20102;-91
2021/12/10 04:14:40;;;;;;;26.88;15.05;;;;;;;;;;5027701;28;20026;-91
2021/12/10 04:17:07;;;;;;;22.50;9.93;;;;;;;;;;5030250;28;20029;-93
2021/12/10 04:19:34;;;;;;;17.65;10.02;;;;;;;;;;5023705;28;20018;-92
2021/12/10 04:22:01;;;;;;;16.98;9.98;;;;;;;;;;5025409;28;20029;-93
2021/12/10 04:24:29;;;;;;;17.73;8.60;;;;;;;;;;5018574;28;20210;-91
2021/12/10 04:26:56;;;;;;;18.77;10.23;;;;;;;;;;5034200;28;20029;-92
2021/12/10 04:29:22;;;;;;;21.38;11.25;;;;;;;;;;5021229;28;21655;-92
2021/12/10 04:31:50;;;;;;;18.63;10.57;;;;;;;;;;5018154;28;20167;-92
2021/12/10 04:34:17;;;;;;;22.70;10.27;;;;;;;;;;5014600;28;20055;-93
2021/12/10 04:36:46;;;;;;;16.52;9.98;;;;;;;;;;5016679;28;20057;-92
2021/12/10 04:39:12;;;;;;;13.98;6.95;;;;;;;;;;5019058;28;20346;-91
2021/12/10 04:41:41;;;;;;;14.00;8.82;;;;;;;;;;5019012;28;20033;-93
2021/12/10 04:44:07;;;;;;;14.40;5.55;;;;;;;;;;5036431;28;20036;-92
2021/12/10 04:46:34;;;;;;;15.32;6.05;;;;;;;;;;5018131;28;20060;-91
2021/12/10 04:49:03;;;;;;;20.25;11.00;;;;;;;;;;5027530;28;20037;-92
2021/12/10 04:51:32;;;;;;;14.00;6.18;;;;;;;;;;5020677;28;20049;-93
2021/12/10 04:53:59;;;;;;;13.23;7.65;;;;;;;;;;5017412;28;20101;-93
2021/12/10 04:56:26;;;;;;;14.43;5.22;;;;;;;;;;5020208;28;20033;-92
2021/12/10 04:58:55;;;;;;;9.77;5.55;;;;;;;;;;5021675;28;20057;-92
2021/12/10 05:01:22;;;;;;;15.10;6.85;;;;;;;;;;5015910;28;20040;-90
2021/12/10 05:03:48;;;;;;;10.23;6.20;;;;;;;;;;5026627;28;20056;-93
2021/12/10 05:06:15;;;;;;;23.40;7.85;;;;;;;;;;5023788;28;20246;-93
2021/12/10 05:08:41;;;;;;;9.73;6.45;;;;;;;;;;5016768;28;20029;-91
2021/12/10 05:11:09;;;;;;;9.15;5.22;;;;;;;;;;5035391;28;20037;-91
2021/12/10 05:13:43;;;;;;;12.45;6.15;;;;;;;;;;5018069;28;20061;-92
2021/12/10 05:16:10;;;;;;;14.10;6.18;;;;;;;;;;5012317;28;20037;-92
2021/12/10 05:18:39;;;;;;;13.30;6.10;;;;;;;;;;5011832;28;20051;-93
2021/12/10 05:21:09;;;;;;;13.68;8.30;;;;;;;;;;5034999;28;20041;-92
2021/12/10 05:23:35;;;;;;;10.18;5.13;;;;;;;;;;5017623;28;20034;-93
2021/12/10 05:26:01;;;;;;;12.30;6.45;;;;;;;;;;5014216;28;20192;-91
2021/12/10 05:28:28;;;;;;;13.82;7.10;;;;;;;;;;5030120;28;20388;-91
2021/12/10 05:30:56;;;;;;;11.23;6.63;;;;;;;;;;5014235;28;20041;-92
2021/12/10 05:33:25;;;;;;;13.18;7.30;;;;;;;;;;5019654;28;20251;-92
2021/12/10 05:35:51;;;;;;;8.32;5.10;;;;;;;;;;5015767;28;20127;-92
2021/12/10 05:38:19;;;;;;;9.68;5.47;;;;;;;;;;5013056;28;20038;-92
2021/12/10 05:40:46;;;;;;;12.43;6.57;;;;;;;;;;5013640;28;20042;-90
2021/12/10 05:43:20;;;;;;;10.07;5.28;;;;;;;;;;5016907;28;20052;-92
2021/12/10 05:45:46;;;;;;;12.02;6.85;;;;;;;;;;5018832;28;20029;-92
2021/12/10 05:48:13;;;;;;;13.68;5.97;;;;;;;;;;5017652;28;20055;-91
2021/12/10 05:50:39;;;;;;;14.25;4.95;;;;;;;;;;5017170;28;20063;-93
2021/12/10 05:53:06;;;;;;;11.35;6.63;;;;;;;;;;5016113;28;20045;-92
2021/12/10 05:55:33;;;;;;;12.93;5.78;;;;;;;;;;5016183;28;20056;-93
2021/12/10 05:58:01;;;;;;;13.98;6.72;;;;;;;;;;5012359;28;20025;-91
2021/12/10 06:00:33;;;;;;;19.05;7.68;;;;;;;;;;5029149;28;20036;-93
2021/12/10 06:02:59;;;;;;;12.18;6.65;;;;;;;;;;5013317;28;20029;-92
2021/12/10 06:05:26;;;;;;;12.43;6.50;;;;;;;;;;5039270;28;20097;-92
2021/12/10 06:07:53;;;;;;;12.15;5.88;;;;;;;;;;5023115;28;20041;-93
2021/12/10 06:10:20;;;;;;;15.68;7.88;;;;;;;;;;5025741;28;20033;-92
2021/12/10 06:12:47;;;;;;;11.73;8.15;;;;;;;;;;5043242;28;20029;-92
2021/12/10 06:15:14;;;;;;;17.90;9.23;;;;;;;;;;5024823;28;20033;-92
2021/12/10 06:17:41;;;;;;;9.85;6.47;;;;;;;;;;5020236;28;20030;-93
2021/12/10 06:20:11;;;;;;;16.90;8.82;;;;;;;;;;5015962;28;20029;-91
2021/12/10 06:22:37;;;;;;;14.90;8.60;;;;;;;;;;5036960;28;20025;-91
2021/12/10 06:25:04;;;;;;;13.27;8.88;;;;;;;;;;5014724;28;20228;-92
2021/12/10 06:27:30;;;;;;;18.85;11.48;;;;;;;;;;5017781;28;20097;-93
2021/12/10 06:29:58;;;;;;;15.45;9.10;;;;;;;;;;5016824;28;20033;-92
2021/12/10 06:32:26;;;;;;;23.50;13.55;;;;;;;;;;5015158;28;20064;-92
2021/12/10 06:34:55;;;;;;;19.55;10.98;;;;;;;;;;5017863;28;20033;-93
2021/12/10 06:37:21;;;;;;;18.48;11.00;;;;;;;;;;5011870;28;20897;-93
2021/12/10 06:39:48;;;;;;;16.55;9.65;;;;;;;;;;5023276;28;20085;-95
2021/12/10 06:42:14;;;;;;;16.02;9.70;;;;;;;;;;5016961;28;20044;-92
2021/12/10 06:44:40;;;;;;;16.33;10.38;;;;;;;;;;5018964;28;20389;-95
2021/12/10 06:47:08;;;;;;;20.05;10.50;;;;;;;;;;5016027;28;20033;-94
2021/12/10 06:49:54;;;;;;;19.33;10.75;;;;;;;;;;5015058;28;20127;-93
2021/12/10 06:52:21;;;;;;;19.08;9.90;;;;;;;;;;5023601;28;20061;-95
2021/12/10 06:54:47;;;;;;;16.92;8.85;;;;;;;;;;5039294;28;20033;-93
2021/12/10 06:57:16;;;;;;;15.68;9.75;;;;;;;;;;5021661;28;20033;-93
2021/12/10 06:59:42;;;;;;;17.30;11.15;;;;;;;;;;5004982;28;20040;-93
2021/12/10 07:02:11;;;;;;;18.15;10.65;;;;;;;;;;5017606;28;20353;-92
2021/12/10 07:04:40;;;;;;;22.63;11.20;;;;;;;;;;5014404;28;20033;-92
2021/12/10 07:07:22;;;;;;;23.63;13.10;;;;;;;;;;5024514;28;20044;-94
2021/12/10 07:09:48;;;;;;;18.98;11.75;;;;;;;;;;5037025;28;20037;-94
2021/12/10 07:12:18;;;;;;;17.08;11.30;;;;;;;;;;5031909;28;20037;-93
2021/12/10 07:14:45;;;;;;;17.58;11.40;;;;;;;;;;5019492;28;20033;-92
2021/12/10 07:17:11;;;;;;;20.73;11.45;;;;;;;;;;5031416;28;20093;-93
2021/12/10 07:19:40;;;;;;;17.48;11.02;;;;;;;;;;5021348;28;20038;-93
2021/12/10 07:22:14;;;;;;;15.32;10.00;;;;;;;;;;5037825;28;20116;-93
2021/12/10 07:24:40;;;;;;;21.33;11.60;;;;;;;;;;5013082;28;20034;-92
2021/12/10 07:27:11;;;;;;;16.65;9.73;;;;;;;;;;5015967;28;20167;-93
2021/12/10 07:29:40;;;;;;;16.25;8.80;;;;;;;;;;5019888;28;20108;-94
2021/12/10 07:32:09;;;;;;;17.92;10.32;;;;;;;;;;5016812;28;20033;-93
2021/12/10 07:34:35;;;;;;;13.20;8.23;;;;;;;;;;5033322;28;20079;-93
2021/12/10 07:37:02;;;;;;;19.17;11.02;;;;;;;;;;5017424;28;20499;-94
2021/12/10 07:39:28;;;;;;;14.30;9.70;;;;;;;;;;5021292;28;20406;-94
2021/12/10 07:42:07;;;;;;;17.27;10.55;;;;;;;;;;5035466;28;20330;-92
2021/12/10 07:44:36;;;;;;;16.13;8.18;;;;;;;;;;5034912;28;20072;-95
2021/12/10 07:47:09;;;;;;;12.88;7.18;;;;;;;;;;5033727;28;20040;-93
2021/12/10 07:49:38;;;;;;;13.90;7.80;;;;;;;;;;5006138;28;20053;-95
2021/12/10 07:52:15;;;;;;;13.45;7.70;;;;;;;;;;5028895;28;20101;-93
2021/12/10 07:54:46;;;;;;;17.02;10.30;;;;;;;;;;5014340;28;20211;-93
2021/12/10 07:57:12;;;;;;;19.30;9.20;;;;;;;;;;5014577;28;20070;-93
2021/12/10 07:59:39;;;;;;;14.30;8.15;;;;;;;;;;5021137;28;20033;-92
2021/12/10 08:02:05;;;;;;;11.27;7.80;;;;;;;;;;5017671;28;20041;-93
2021/12/10 08:04:42;;;;;;;13.45;8.13;;;;;;;;;;5025040;28;20098;-93
2021/12/10 08:07:08;;;;;;;17.27;10.43;;;;;;;;;;5045782;28;20073;-92
2021/12/10 08:09:34;;;;;;;15.35;9.38;;;;;;;;;;5023556;28;20033;-92
2021/12/10 08:12:09;;;;;;;11.85;7.28;;;;;;;;;;5020427;28;20041;-93
2021/12/10 08:14:44;;;;;;;15.55;8.07;;;;;;;;;;5022890;28;20037;-94
2021/12/10 08:20:06;;;;;;;12.05;8.30;;;;;;;;;;5010244;28;20034;-93
2021/12/10 08:22:35;;;;;;;10.18;6.90;;;;;;;;;;5020501;28;20041;-94
2021/12/10 08:25:04;;;;;;;11.27;6.65;;;;;;;;;;5016293;28;20370;-92
2021/12/10 08:27:30;;;;;;;10.63;7.03;;;;;;;;;;5021130;28;20219;-91
2021/12/10 08:30:03;;;;;;;14.20;6.13;;;;;;;;;;5019675;28;20040;-92
2021/12/10 08:32:29;;;;;;;11.40;6.13;;;;;;;;;;5018797;28;20042;-92
2021/12/10 08:34:55;;;;;;;10.60;6.25;;;;;;;;;;5016143;28;20029;-92
2021/12/10 08:37:24;;;;;;;6.82;5.30;;;;;;;;;;5018207;28;20456;-92
2021/12/10 08:39:53;;;;;;;7.95;5.13;;;;;;;;;;5040727;28;20037;-91
2021/12/10 08:42:19;;;;;;;11.77;6.22;;;;;;;;;;5019938;28;20041;-90
2021/12/10 08:44:46;;;;;;;10.75;6.10;;;;;;;;;;5038233;28;20033;-91
2021/12/10 08:47:14;;;;;;;11.50;5.50;;;;;;;;;;5019704;28;20386;-91
2021/12/10 08:49:43;;;;;;;17.13;5.47;;;;;;;;;;5019647;28;20107;-92
2021/12/10 08:52:15;;;;;;;8.35;4.78;;;;;;;;;;5014988;28;20227;-92
2021/12/10 08:54:42;;;;;;;10.40;5.97;;;;;;;;;;5018412;28;20037;-91
2021/12/10 08:57:08;;;;;;;8.25;5.20;;;;;;;;;;5014710;28;20073;-92
2021/12/10 08:59:36;;;;;;;11.23;5.05;;;;;;;;;;5010144;28;20201;-92
2021/12/10 09:02:03;;;;;;;9.23;4.53;;;;;;;;;;5021053;28;20048;-91
2021/12/10 09:04:33;;;;;;;10.23;5.57;;;;;;;;;;5036403;28;20057;-92
2021/12/10 09:07:03;;;;;;;6.40;4.45;;;;;;;;;;5019043;28;20043;-92
2021/12/10 09:09:30;;;;;;;7.38;5.20;;;;;;;;;;5018207;28;20044;-91
2021/12/10 09:11:58;;;;;;;8.02;4.15;;;;;;;;;;5019082;28;20038;-93
2021/12/10 09:14:29;;;;;;;7.18;3.78;;;;;;;;;;5018553;28;20336;-93
2021/12/10 09:16:56;;;;;;;6.25;4.35;;;;;;;;;;5018437;28;20263;-93
2021/12/10 09:19:23;;;;;;;7.65;4.28;;;;;;;;;;5021159;28;20049;-92
2021/12/10 09:21:49;;;;;;;8.65;5.05;;;;;;;;;;5034752;28;20047;-92
2021/12/10 09:24:17;;;;;;;7.30;3.90;;;;;;;;;;5019307;28;20386;-91
2021/12/10 09:26:44;;;;;;;11.85;3.40;;;;;;;;;;5035841;28;20156;-91
2021/12/10 09:29:14;;;;;;;6.45;4.00;;;;;;;;;;5016848;28;20049;-92
2021/12/10 09:31:42;;;;;;;5.45;2.85;;;;;;;;;;5019091;28;20045;-93
2021/12/10 09:34:08;;;;;;;6.35;3.95;;;;;;;;;;5021227;28;20033;-91
2021/12/10 09:36:35;;;;;;;11.88;3.63;;;;;;;;;;5017369;28;20196;-92
2021/12/10 09:39:01;;;;;;;7.05;3.92;;;;;;;;;;5034323;28;20037;-92
2021/12/10 09:41:28;;;;;;;6.38;3.65;;;;;;;;;;5016904;28;20121;-92
2021/12/10 09:43:54;;;;;;;6.05;3.00;;;;;;;;;;5020790;28;20104;-91
2021/12/10 09:46:23;;;;;;;7.72;3.88;;;;;;;;;;5018237;28;20307;-92
2021/12/10 09:48:51;;;;;;;6.70;3.60;;;;;;;;;;5017238;28;20399;-91
2021/12/10 09:51:22;;;;;;;8.20;4.30;;;;;;;;;;5018612;28;20156;-92
2021/12/10 09:53:50;;;;;;;9.35;4.07;;;;;;;;;;5018697;28;20042;-92
2021/12/10 09:56:17;;;;;;;9.20;3.45;;;;;;;;;;5028542;28;20041;-91
2021/12/10 09:58:44;;;;;;;7.05;3.92;;;;;;;;;;5036143;28;20188;-90
2021/12/10 10:01:13;;;;;;;7.13;4.30;;;;;;;;;;5021439;28;20045;-92
2021/12/10 10:03:41;;;;;;;6.35;3.30;;;;;;;;;;5022991;28;20037;-92
2021/12/10 10:06:07;;;;;;;7.28;4.60;;;;;;;;;;5039425;28;20064;-92
2021/12/10 10:08:34;;;;;;;4.88;2.85;;;;;;;;;;5012429;28;20120;-91
2021/12/10 10:11:04;;;;;;;5.65;3.40;;;;;;;;;;5020148;28;20388;-90
2021/12/10 10:13:32;;;;;;;7.93;4.28;;;;;;;;;;5034069;28;20088;-90
2021/12/10 10:15:59;;;;;;;5.97;2.75;;;;;;;;;;5024401;28;20047;-90
2021/12/10 10:18:26;;;;;;;4.80;3.10;;;;;;;;;;5016256;28;20106;-91
2021/12/10 10:20:56;;;;;;;5.25;2.47;;;;;;;;;;5015827;28;20038;-92
2021/12/10 10:23:29;;;;;;;5.90;3.63;;;;;;;;;;5013329;28;20045;-92
2021/12/10 10:25:57;;;;;;;6.22;3.58;;;;;;;;;;5009882;28;20068;-91
2021/12/10 10:28:26;;;;;;;5.50;3.05;;;;;;;;;;5017757;28;20124;-92
2021/12/10 10:31:00;;;;;;;8.68;3.95;;;;;;;;;;5018907;28;20239;-92
2021/12/10 10:33:29;;;;;;;4.85;3.10;;;;;;;;;;5010700;28;20045;-92
2021/12/10 10:36:01;;;;;;;4.90;3.00;;;;;;;;;;5034721;28;20393;-91
2021/12/10 10:38:27;;;;;;;5.57;3.90;;;;;;;;;;5017728;28;20430;-91
2021/12/10 10:40:58;;;;;;;4.22;3.00;;;;;;;;;;5017768;28;20029;-91
2021/12/10 10:43:25;;;;;;;6.95;3.30;;;;;;;;;;5016973;28;20040;-92
2021/12/10 10:45:51;;;;;;;4.85;2.55;;;;;;;;;;5011407;28;20108;-92
2021/12/10 10:48:18;;;;;;;6.75;3.08;;;;;;;;;;5017123;28;20041;-92
2021/12/10 10:50:50;;;;;;;5.68;3.03;;;;;;;;;;5013147;28;20058;-92
2021/12/10 10:53:17;;;;;;;9.00;3.47;;;;;;;;;;5016929;28;20049;-91
2021/12/10 10:55:55;;;;;;;5.85;3.35;;;;;;;;;;5039859;28;20033;-91
2021/12/10 10:58:25;;;;;;;6.82;2.40;;;;;;;;;;5029845;28;20121;-91
2021/12/10 11:01:09;;;;;;;5.15;2.72;;;;;;;;;;5026292;28;20085;-92
2021/12/10 11:03:46;;;;;;;5.35;3.15;;;;;;;;;;5021846;28;20127;-91
2021/12/10 11:06:20;;;;;;;7.63;3.63;;;;;;;;;;5036074;28;20287;-91
2021/12/10 11:08:49;;;;;;;6.70;3.67;;;;;;;;;;5013370;28;20065;-93
2021/12/10 11:11:25;;;;;;;4.43;2.85;;;;;;;;;;5018157;28;20033;-92
2021/12/10 11:13:59;;;;;;;4.60;2.42;;;;;;;;;;5027252;28;20044;-92
2021/12/10 11:16:27;;;;;;;4.35;2.83;;;;;;;;;;5034808;28;20075;-91
2021/12/10 11:19:29;;;;;;;5.47;2.63;;;;;;;;;;5033024;28;20100;-92
2021/12/10 11:22:03;;;;;;;5.35;2.53;;;;;;;;;;4982854;28;20073;-92
2021/12/10 11:24:34;;;;;;;5.18;2.83;;;;;;;;;;5017469;28;20069;-91
2021/12/10 11:27:03;;;;;;;5.32;2.28;;;;;;;;;;5032614;28;20351;-91
2021/12/10 11:29:30;;;;;;;12.43;3.40;;;;;;;;;;5016779;28;20073;-90
2021/12/10 11:32:15;;;;;;;5.72;3.03;;;;;;;;;;5016610;28;20390;-92
2021/12/10 11:34:43;;;;;;;5.82;3.28;;;;;;;;;;5012856;28;20030;-92
2021/12/10 11:37:09;;;;;;;5.90;2.78;;;;;;;;;;5013953;28;20037;-92
2021/12/10 11:39:52;;;;;;;4.32;2.55;;;;;;;;;;5022674;28;20045;-92
2021/12/10 11:42:34;;;;;;;4.80;2.70;;;;;;;;;;5036118;28;20044;-92
2021/12/10 11:45:29;;;;;;;4.00;2.75;;;;;;;;;;5016490;28;20151;-92
2021/12/10 11:48:05;;;;;;;5.05;2.70;;;;;;;;;;5020418;28;20033;-92
2021/12/10 11:50:32;;;;;;;7.25;2.70;;;;;;;;;;5021509;28;20057;-92
2021/12/10 11:53:00;;;;;;;4.40;2.20;;;;;;;;;;5014372;28;20132;-91
2021/12/10 11:55:26;;;;;;;4.40;3.17;;;;;;;;;;5016081;28;20286;-90
2021/12/10 11:57:52;;;;;;;5.72;2.22;;;;;;;;;;5036988;28;20342;-90
2021/12/10 12:00:21;;;;;;;7.47;2.78;;;;;;;;;;5043888;28;20038;-92
2021/12/10 12:02:53;;;;;;;5.72;2.38;;;;;;;;;;5027511;28;20091;-92
2021/12/10 12:05:21;;;;;;;5.78;2.05;;;;;;;;;;5018582;28;20041;-91
2021/12/10 12:07:49;;;;;;;3.30;2.38;;;;;;;;;;5017507;28;20040;-91
2021/12/10 12:10:31;;;;;;;4.30;2.50;;;;;;;;;;5037895;28;20041;-91
2021/12/10 12:13:02;;;;;;;5.47;2.35;;;;;;;;;;5018964;28;20250;-89
2021/12/10 12:15:34;;;;;;;3.60;1.48;;;;;;;;;;5012145;28;20350;-91
2021/12/10 12:18:07;;;;;;;4.65;2.50;;;;;;;;;;5015657;28;20044;-90
2021/12/10 12:20:41;;;;;;;6.47;2.75;;;;;;;;;;5020266;28;20047;-90
2021/12/10 12:26:13;;;;;;;3.17;2.10;;;;;;;;;;5045315;28;21207;-91
2021/12/10 12:28:42;;;;;;;2.28;1.55;;;;;;;;;;5020469;28;20037;-90
2021/12/10 12:31:10;;;;;;;2.80;1.80;;;;;;;;;;5025009;28;20037;-90
2021/12/10 12:33:57;;;;;;;3.88;1.98;;;;;;;;;;5017519;28;20282;-93
2021/12/10 12:36:29;;;;;;;4.35;1.98;;;;;;;;;;5025209;28;20118;-91
2021/12/10 12:38:55;;;;;;;3.92;2.25;;;;;;;;;;5010760;28;20117;-92
2021/12/10 12:41:35;;;;;;;7.38;3.63;;;;;;;;;;5016226;28;20033;-92
2021/12/10 12:44:22;;;;;;;6.30;2.58;;;;;;;;;;5016120;28;20053;-90
2021/12/10 12:47:03;;;;;;;4.50;2.63;;;;;;;;;;5010186;28;20037;-91
2021/12/10 12:49:34;;;;;;;4.05;2.00;;;;;;;;;;5014990;28;20029;-91
2021/12/10 12:52:06;;;;;;;4.18;2.75;;;;;;;;;;5019674;28;20167;-89
2021/12/10 12:54:33;;;;;;;6.95;2.60;;;;;;;;;;5036001;28;20047;-92
2021/12/10 12:57:01;;;;;;;10.40;3.00;;;;;;;;;;5032512;28;20108;-90
2021/12/10 12:59:27;;;;;;;10.57;3.65;;;;;;;;;;5029174;28;20068;-90
2021/12/10 13:01:56;;;;;;;4.28;2.63;;;;;;;;;;5012854;28;20346;-90
2021/12/10 13:04:28;;;;;;;7.18;3.08;;;;;;;;;;5018773;28;20059;-90
2021/12/10 13:07:02;;;;;;;6.18;2.78;;;;;;;;;;5018034;28;20041;-90
2021/12/10 13:09:40;;;;;;;6.82;2.80;;;;;;;;;;5014611;28;20037;-92
2021/12/10 13:12:18;;;;;;;8.60;3.13;;;;;;;;;;5018035;28;20272;-92
2021/12/10 13:14:51;;;;;;;12.07;3.70;;;;;;;;;;5032785;28;20042;-91
2021/12/10 13:17:20;;;;;;;6.05;1.83;;;;;;;;;;5015178;28;20251;-92
2021/12/10 13:19:47;;;;;;;7.38;3.35;;;;;;;;;;5019163;28;20033;-91
2021/12/10 13:22:16;;;;;;;7.93;3.03;;;;;;;;;;5017446;28;20045;-91
2021/12/10 13:24:43;;;;;;;7.00;3.25;;;;;;;;;;5017301;28;20048;-93
2021/12/10 13:27:10;;;;;;;4.97;2.95;;;;;;;;;;5015512;28;20041;-91
2021/12/10 13:29:36;;;;;;;8.95;4.05;;;;;;;;;;5015690;28;20204;-92
2021/12/10 13:32:07;;;;;;;7.65;3.97;;;;;;;;;;5032384;28;20048;-91
2021/12/10 13:34:36;;;;;;;8.30;3.05;;;;;;;;;;5014564;28;20328;-92
2021/12/10 13:37:06;;;;;;;7.90;4.35;;;;;;;;;;5014834;28;20037;-90
2021/12/10 13:39:32;;;;;;;6.82;3.45;;;;;;;;;;5006288;28;21233;-91
2021/12/10 13:41:59;;;;;;;7.40;3.97;;;;;;;;;;5018243;28;20037;-91
2021/12/10 13:46:56;;;;;;;6.55;2.55;;;;;;;;;;5033494;28;20029;-91
2021/12/10 13:49:22;;;;;;;4.63;1.85;;;;;;;;;;5026291;28;20082;-92
2021/12/10 13:51:50;;;;;;;4.18;2.13;;;;;;;;;;5018425;28;20057;-92
2021/12/10 13:54:24;;;;;;;4.50;2.40;;;;;;;;;;5033222;28;20057;-91
2021/12/10 13:57:01;;;;;;;4.37;2.13;;;;;;;;;;5039832;28;20037;-91
2021/12/10 13:59:31;;;;;;;7.45;2.58;;;;;;;;;;5026105;28;20037;-90
2021/12/10 14:02:00;;;;;;;5.63;2.60;;;;;;;;;;5016261;28;20388;-90
2021/12/10 14:04:36;;;;;;;5.38;1.98;;;;;;;;;;5017997;28;20107;-91
2021/12/10 14:07:13;;;;;;;5.57;2.00;;;;;;;;;;5013205;28;20073;-91
2021/12/10 14:09:52;;;;;;;5.38;2.72;;;;;;;;;;5016008;28;20075;-91
2021/12/10 14:15:09;;;;;;;3.53;2.17;;;;;;;;;;5030686;28;20060;-90
2021/12/10 14:17:38;;;;;;;9.15;2.85;;;;;;;;;;5014442;28;20032;-90
2021/12/10 14:20:12;;;;;;;3.78;2.47;;;;;;;;;;5016362;28;20215;-90
2021/12/10 14:22:48;;;;;;;7.88;3.05;;;;;;;;;;5012990;28;21151;-91
2021/12/10 14:25:46;;;;;;;9.15;4.95;;;;;;;;;;5029778;28;20223;-89
2021/12/10 14:28:16;;;;;;;10.48;4.70;;;;;;;;;;4988366;28;20486;-91
2021/12/10 14:30:44;;;;;;;9.25;4.82;;;;;;;;;;5016688;28;20041;-90
2021/12/10 14:33:10;;;;;;;8.65;4.30;;;;;;;;;;5016858;28;20045;-90
2021/12/10 14:35:42;;;;;;;8.60;4.10;;;;;;;;;;5029727;28;20083;-91
2021/12/10 14:38:09;;;;;;;8.25;4.00;;;;;;;;;;5031268;28;20132;-90
2021/12/10 14:40:48;;;;;;;12.63;4.90;;;;;;;;;;5016203;28;20044;-90
2021/12/10 14:43:19;;;;;;;13.13;4.90;;;;;;;;;;5021586;28;20036;-91
2021/12/10 14:45:54;;;;;;;10.43;6.15;;;;;;;;;;5011917;28;20037;-90
2021/12/10 14:48:20;;;;;;;9.65;5.68;;;;;;;;;;5012479;28;20037;-90
2021/12/10 14:51:18;;;;;;;8.02;5.63;;;;;;;;;;5016727;28;20049;-92
2021/12/10 14:53:46;;;;;;;8.50;4.85;;;;;;;;;;5010732;28;20101;-92
2021/12/10 14:56:18;;;;;;;10.90;5.97;;;;;;;;;;5014672;28;20072;-93
2021/12/10 14:59:03;;;;;;;9.00;5.88;;;;;;;;;;5016046;28;20044;-91
2021/12/10 15:01:29;;;;;;;11.73;5.20;;;;;;;;;;5029593;28;20042;-89
2021/12/10 15:03:56;;;;;;;14.38;6.22;;;;;;;;;;5016272;28;20045;-90